Doris Moran — WRU2125 — position and weather

sailwx.info

Track history (hours):
 
Tides and Currents Weather Stations Pressure Air Temp Water Temp Dewpoint Dewpoint Depression Visibility Wind Speed Wind Dir Waves Ship Positions

Doris Moran

Owner: MORAN TOWING CORPORATION, New Canaan, CT. More information available from US FCC via Universal Licensing System and Coast Guard Vessel Documentation Center.

Last reported at 2018-Feb-22 19:28 UTC. Time now 2018-Feb-24 02:18 UTC.
Position N 40°31' W 073°59'.

Date/timePositionNaut miles runAvg speedWind from/ knotsBaromVisibWave heightAir tempDewpointWater temp
2018-Feb-22 19:28N 40°31' W 073°59'3 6.6
2018-Feb-22 19:00N 40°33' W 074°02'3 6.8
2018-Feb-22 18:30N 40°37' W 074°03'2 4.3
2018-Feb-22 18:00N 40°39' W 074°04'4 7.7
2018-Feb-22 17:31N 40°39' W 074°09'2 4.4
2018-Feb-22 17:00N 40°41' W 074°08'2 4.3
2018-Feb-22 16:30N 40°43' W 074°07'0 0.0
2018-Feb-22 16:00N 40°43' W 074°07'0 0.0
2018-Feb-22 15:30N 40°43' W 074°07'0 0.1
2018-Feb-22 15:00N 40°43' W 074°07'4 8.4
2018-Feb-22 14:30N 40°39' W 074°09'0 0.9
2018-Feb-22 13:59N 40°39' W 074°10'0 0.0
2018-Feb-22 13:29N 40°39' W 074°10'0 0.0
2018-Feb-22 12:59N 40°39' W 074°10'0 0.0
2018-Feb-22 12:29N 40°39' W 074°10'0 0.0
2018-Feb-22 11:59N 40°39' W 074°10'0 0.0
2018-Feb-22 11:29N 40°39' W 074°10'0 0.0
2018-Feb-22 10:59N 40°39' W 074°10'0 0.0
2018-Feb-22 10:29N 40°39' W 074°10'0 0.0
2018-Feb-22 09:59N 40°39' W 074°10'0 0.0
2018-Feb-22 09:29N 40°39' W 074°10'0 0.0
2018-Feb-22 08:59N 40°39' W 074°10'0 0.0
2018-Feb-22 08:29N 40°39' W 074°10'0 0.0
2018-Feb-22 07:59N 40°39' W 074°10'0 0.0
2018-Feb-22 07:29N 40°39' W 074°10'0 0.0
2018-Feb-22 06:59N 40°39' W 074°10'0 0.0
2018-Feb-22 06:29N 40°39' W 074°10'0 0.0
2018-Feb-22 05:56N 40°39' W 074°10'0 0.0
2018-Feb-22 05:29N 40°39' W 074°10'0 0.0
2018-Feb-22 04:59N 40°39' W 074°10'0 0.0
2018-Feb-22 04:29N 40°39' W 074°10'0 0.0
2018-Feb-22 03:59N 40°39' W 074°10'0 0.0
2018-Feb-22 03:29N 40°39' W 074°10'0 0.0
2018-Feb-22 02:59N 40°39' W 074°10'0 0.0
2018-Feb-22 02:29N 40°39' W 074°10'0 0.0
2018-Feb-22 01:59N 40°39' W 074°10'0 0.0
2018-Feb-22 01:26N 40°39' W 074°10'0 0.0
2018-Feb-22 01:00N 40°39' W 074°10'0 0.3
2018-Feb-22 00:30N 40°39' W 074°10'2 4.5
2018-Feb-22 00:00N 40°40' W 074°08'2 4.8
2018-Feb-21 23:30N 40°43' W 074°07'0 0.0
2018-Feb-21 23:00N 40°43' W 074°07'1 1.0
2018-Feb-21 22:30N 40°42' W 074°07'2 3.6
2018-Feb-21 21:59N 40°41' W 074°08'2 4.1
2018-Feb-21 21:30N 40°39' W 074°08'3 6.3
2018-Feb-21 21:00N 40°39' W 074°04'1 2.5
2018-Feb-21 20:30N 40°39' W 074°03'0 0.2
2018-Feb-21 20:00N 40°39' W 074°03'0 0.1
2018-Feb-21 19:30N 40°39' W 074°03'0 0.1
2018-Feb-21 19:00N 40°40' W 074°03'0 0.0
2018-Feb-21 18:30N 40°40' W 074°03'0 0.0
2018-Feb-21 18:00N 40°40' W 074°03'0 0.0
2018-Feb-21 17:30N 40°40' W 074°03'0 0.1
2018-Feb-21 17:00N 40°40' W 074°03'2 3.8
2018-Feb-21 16:30N 40°39' W 074°05'3 5.7
2018-Feb-21 16:00N 40°39' W 074°09'3 6.6
2018-Feb-21 15:30N 40°42' W 074°07'1 1.1
2018-Feb-21 15:00N 40°43' W 074°07'0 0.0
2018-Feb-21 14:30N 40°43' W 074°07'1 1.4
2018-Feb-21 14:00N 40°42' W 074°07'3 6.8
2018-Feb-21 13:30N 40°39' W 074°09'1 1.9
2018-Feb-21 12:59N 40°38' W 074°08'0 0.0
2018-Feb-21 12:29N 40°38' W 074°08'0 0.0
2018-Feb-21 11:56N 40°38' W 074°08'0 0.0
2018-Feb-21 11:29N 40°38' W 074°08'0 0.0
2018-Feb-21 10:59N 40°38' W 074°08'0 0.0
2018-Feb-21 10:26N 40°38' W 074°08'0 0.0
2018-Feb-21 09:59N 40°38' W 074°08'0 0.0
2018-Feb-21 09:29N 40°38' W 074°08'0 0.0
2018-Feb-21 08:59N 40°38' W 074°08'0 0.0
2018-Feb-21 08:29N 40°38' W 074°08'0 0.0
2018-Feb-21 07:59N 40°38' W 074°08'0 0.0
2018-Feb-21 07:29N 40°38' W 074°08'0 0.0
2018-Feb-21 06:56N 40°38' W 074°08'0 0.0
2018-Feb-21 06:26N 40°38' W 074°08'0 0.0
2018-Feb-21 05:56N 40°38' W 074°08'0 0.0
2018-Feb-21 05:29N 40°38' W 074°08'0 0.0
2018-Feb-21 04:59N 40°38' W 074°08'0 0.0
2018-Feb-21 04:29N 40°38' W 074°08'0 0.0
2018-Feb-21 03:59N 40°38' W 074°08'0 0.0
2018-Feb-21 03:29N 40°38' W 074°08'0 0.0
2018-Feb-21 02:56N 40°38' W 074°08'0 0.0
2018-Feb-21 02:29N 40°38' W 074°08'0 0.0
2018-Feb-21 01:59N 40°38' W 074°08'0 0.0
2018-Feb-21 01:29N 40°38' W 074°08'1 1.7
2018-Feb-21 01:00N 40°39' W 074°09'4 7.5
2018-Feb-21 00:29N 40°42' W 074°07'0 0.1
2018-Feb-20 23:59N 40°42' W 074°07'1 1.3
2018-Feb-20 23:30N 40°43' W 074°07'0 0.0
2018-Feb-20 22:57N 40°43' W 074°07'0 1.0
2018-Feb-20 22:30N 40°42' W 074°07'2 4.4
2018-Feb-20 21:59N 40°40' W 074°08'1 3.2
2018-Feb-20 21:31N 40°39' W 074°08'3 5.6
2018-Feb-20 21:00N 40°39' W 074°05'1 2.7
2018-Feb-20 20:30N 40°39' W 074°03'0 0.0
2018-Feb-20 20:00N 40°39' W 074°03'0 0.0
2018-Feb-20 19:30N 40°39' W 074°03'0 0.0
2018-Feb-20 19:00N 40°39' W 074°03'0 0.1
2018-Feb-20 18:30N 40°39' W 074°03'2 3.8
2018-Feb-20 17:55N 40°37' W 074°03'0 0.4
2018-Feb-20 17:28N 40°37' W 074°03'1 1.4
2018-Feb-20 17:00N 40°38' W 074°03'2 4.9
2018-Feb-20 16:30N 40°39' W 074°06'2 3.5
2018-Feb-20 15:59N 40°40' W 074°09'3 5.2
2018-Feb-20 15:25N 40°42' W 074°07'0 0.9
2018-Feb-20 14:55N 40°43' W 074°07'0 0.0
2018-Feb-20 14:28N 40°43' W 074°07'0 0.1
2018-Feb-20 14:00N 40°43' W 074°07'3 5.8
2018-Feb-20 13:30N 40°40' W 074°08'2 2.8
2018-Feb-20 12:58N 40°38' W 074°08'0 0.0
2018-Feb-20 12:28N 40°38' W 074°08'0 0.0
2018-Feb-20 11:49N 40°38' W 074°08'0 0.1
2018-Feb-20 11:28N 40°38' W 074°08'0 0.0
2018-Feb-20 10:58N 40°38' W 074°08'0 0.1
2018-Feb-20 10:28N 40°38' W 074°08'0 0.0
2018-Feb-20 09:05N 40°38' W 074°08'0 0.0
2018-Feb-20 08:56N 40°38' W 074°08'0 0.0
2018-Feb-20 08:30N 40°38' W 074°08'0 0.0
2018-Feb-20 07:59N 40°38' W 074°08'0 0.0
2018-Feb-20 06:47N 40°38' W 074°08'0 0.0
2018-Feb-20 06:31N 40°38' W 074°08'0 0.0
2018-Feb-20 05:59N 40°38' W 074°08'0 0.0
2018-Feb-20 05:23N 40°38' W 074°08'0 0.0
2018-Feb-20 04:55N 40°38' W 074°08'0 0.0
2018-Feb-20 04:30N 40°38' W 074°08'0 0.0
2018-Feb-20 03:56N 40°38' W 074°08'0 0.0
2018-Feb-20 03:29N 40°38' W 074°08'0 0.0
2018-Feb-20 03:01N 40°38' W 074°08'0 0.0
2018-Feb-20 02:25N 40°38' W 074°08'0 0.0
2018-Feb-20 02:01N 40°38' W 074°08'0 0.0
2018-Feb-20 00:56N 40°38' W 074°08'1 2.6
2018-Feb-20 00:31N 40°39' W 074°09'1 1.5
2018-Feb-20 00:00N 40°40' W 074°09'0 0.9
2018-Feb-19 23:30N 40°40' W 074°09'1 2.8
2018-Feb-19 22:59N 40°39' W 074°07'3 5.8
2018-Feb-19 22:30N 40°39' W 074°03'2 4.1
2018-Feb-19 22:01N 40°37' W 074°03'4 6.9
2018-Feb-19 21:25N 40°39' W 074°07'1 1.7
2018-Feb-19 21:00N 40°39' W 074°07'1 2.0
2018-Feb-19 20:30N 40°38' W 074°08'0 0.0
2018-Feb-19 20:00N 40°38' W 074°08'0 0.0
2018-Feb-19 19:30N 40°38' W 074°08'0 0.0
2018-Feb-19 19:00N 40°38' W 074°08'0 0.0
2018-Feb-19 18:30N 40°38' W 074°08'0 0.0
2018-Feb-19 18:00N 40°38' W 074°08'0 0.0
2018-Feb-19 17:26N 40°38' W 074°08'0 0.0
2018-Feb-19 17:00N 40°38' W 074°08'0 0.0
2018-Feb-19 16:30N 40°38' W 074°08'0 0.0
2018-Feb-19 16:00N 40°38' W 074°08'0 0.0
2018-Feb-19 15:30N 40°38' W 074°08'0 0.0
2018-Feb-19 14:59N 40°38' W 074°08'2 4.1
2018-Feb-19 14:30N 40°40' W 074°08'2 4.3
2018-Feb-19 14:00N 40°42' W 074°07'0 0.0
2018-Feb-19 13:30N 40°42' W 074°07'0 0.6
2018-Feb-19 13:00N 40°43' W 074°07'1 1.5
2018-Feb-19 12:30N 40°42' W 074°07'3 6.1
2018-Feb-19 12:00N 40°39' W 074°09'1 2.7
2018-Feb-19 11:30N 40°39' W 074°07'2 4.7
2018-Feb-19 11:00N 40°39' W 074°04'2 4.8
2018-Feb-19 10:30N 40°37' W 074°03'2 3.4
2018-Feb-19 10:00N 40°35' W 074°02'2 4.1
2018-Feb-19 09:30N 40°33' W 074°02'2 4.1
2018-Feb-19 09:00N 40°31' W 073°60'3 4.4
2018-Feb-19 08:25N 40°30' W 073°57'2 4.1
2018-Feb-19 07:58N 40°29' W 073°55'2 4.9
2018-Feb-19 07:29N 40°26' W 073°56'39 4.6
2018-Feb-18 23:06N 39°48' W 073°58'1 5.0
2018-Feb-18 22:52N 39°47' W 073°58'2 5.0
2018-Feb-18 22:30N 39°45' W 073°59'3 5.0
2018-Feb-18 22:00N 39°43' W 073°59'2 4.9
2018-Feb-18 21:30N 39°40' W 073°60'3 4.9
2018-Feb-18 20:59N 39°38' W 074°01'3 4.9
2018-Feb-18 20:24N 39°35' W 074°02'2 4.9
2018-Feb-18 19:58N 39°33' W 074°03'179 4.7
2018-Feb-17 06:13N 36°56' W 075°53'1 5.0
2018-Feb-17 05:57N 36°56' W 075°54'2 5.2
2018-Feb-17 05:29N 36°56' W 075°57'3 5.9
2018-Feb-17 05:00N 36°56' W 076°01'3 5.1
2018-Feb-17 04:29N 36°57' W 076°04'13 4.2
2018-Feb-17 01:21N 36°58' W 076°20'0 0.6
2018-Feb-17 00:56N 36°59' W 076°20'1 3.3
2018-Feb-17 00:30N 36°57' W 076°20'3 5.4
2018-Feb-16 23:55N 36°54' W 076°20'2 5.3
2018-Feb-16 23:30N 36°52' W 076°19'2 4.5
2018-Feb-16 23:00N 36°50' W 076°18'2 4.6
2018-Feb-16 22:30N 36°48' W 076°18'1 2.3
2018-Feb-16 22:00N 36°47' W 076°18'0 0.8
2018-Feb-16 21:30N 36°46' W 076°18'0 0.0
2018-Feb-16 21:00N 36°46' W 076°18'0 0.0
2018-Feb-16 20:30N 36°46' W 076°18'0 0.0
2018-Feb-16 20:00N 36°46' W 076°18'0 0.0
2018-Feb-16 19:30N 36°46' W 076°18'0 0.0
2018-Feb-16 19:00N 36°46' W 076°18'0 0.0
2018-Feb-16 18:30N 36°46' W 076°18'0 0.0
2018-Feb-16 18:00N 36°46' W 076°18'0 0.0
2018-Feb-16 17:30N 36°46' W 076°18'0 0.0
2018-Feb-16 17:00N 36°46' W 076°18'0 0.0
2018-Feb-16 16:30N 36°46' W 076°18'0 0.0
2018-Feb-16 16:00N 36°46' W 076°18'0 0.0
2018-Feb-16 15:30N 36°46' W 076°18'0 0.0
2018-Feb-16 15:00N 36°46' W 076°18'0 0.0
2018-Feb-16 14:30N 36°46' W 076°18'0 0.0
2018-Feb-16 14:00N 36°46' W 076°18'0 0.0
2018-Feb-16 13:30N 36°46' W 076°18'0 0.0
2018-Feb-16 13:00N 36°46' W 076°18'0 0.0
2018-Feb-16 12:30N 36°46' W 076°18'0 0.0
2018-Feb-16 12:00N 36°46' W 076°18'0 0.0
2018-Feb-16 11:27N 36°46' W 076°18'0 0.0
2018-Feb-16 11:00N 36°46' W 076°18'0 0.0
2018-Feb-16 10:30N 36°46' W 076°18'0 0.0
2018-Feb-16 10:00N 36°46' W 076°18'0 0.0
2018-Feb-16 09:30N 36°46' W 076°18'0 0.0
2018-Feb-16 09:00N 36°46' W 076°18'0 0.0
2018-Feb-16 08:30N 36°46' W 076°18'0 0.0
2018-Feb-16 08:00N 36°46' W 076°18'0 0.0
2018-Feb-16 07:30N 36°46' W 076°18'0 0.0
2018-Feb-16 07:00N 36°46' W 076°18'0 0.0
2018-Feb-16 06:30N 36°46' W 076°18'0 0.0
2018-Feb-16 06:00N 36°46' W 076°18'0 0.0
2018-Feb-16 05:30N 36°46' W 076°18'0 0.0
2018-Feb-16 05:00N 36°46' W 076°18'0 0.0
2018-Feb-16 04:30N 36°46' W 076°18'0 0.0
2018-Feb-16 04:00N 36°46' W 076°18'0 0.0
2018-Feb-16 03:30N 36°46' W 076°18'0 0.0
2018-Feb-16 03:00N 36°46' W 076°18'0 0.0
2018-Feb-16 02:30N 36°46' W 076°18'0 0.0
2018-Feb-16 02:00N 36°46' W 076°18'0 0.0
2018-Feb-16 01:30N 36°46' W 076°18'0 0.0
2018-Feb-16 01:00N 36°46' W 076°18'0 0.0
2018-Feb-16 00:30N 36°46' W 076°18'0 0.0
2018-Feb-16 00:00N 36°46' W 076°18'0 0.0
2018-Feb-15 23:30N 36°46' W 076°18'0 0.0
2018-Feb-15 23:00N 36°46' W 076°18'0 0.0
2018-Feb-15 22:30N 36°46' W 076°18'0 0.0
2018-Feb-15 22:00N 36°46' W 076°18'0 0.0
2018-Feb-15 21:30N 36°46' W 076°18'0 0.0
2018-Feb-15 21:00N 36°46' W 076°18'0 0.0
2018-Feb-15 20:30N 36°46' W 076°18'0 0.0
2018-Feb-15 20:00N 36°46' W 076°18'0 0.0
2018-Feb-15 19:30N 36°46' W 076°18'0 0.0
2018-Feb-15 19:00N 36°46' W 076°18'0 0.0
2018-Feb-15 18:30N 36°46' W 076°18'0 0.0
2018-Feb-15 18:00N 36°46' W 076°18'0 0.0
2018-Feb-15 17:30N 36°46' W 076°18'0 0.0
2018-Feb-15 17:00N 36°46' W 076°18'0 0.0
2018-Feb-15 16:30N 36°46' W 076°18'0 0.0
2018-Feb-15 16:00N 36°46' W 076°18'0 0.0
2018-Feb-15 15:30N 36°46' W 076°18'0 0.0
2018-Feb-15 15:00N 36°46' W 076°18'0 0.0
2018-Feb-15 14:30N 36°46' W 076°18'0 0.0
2018-Feb-15 14:00N 36°46' W 076°18'0 0.0
2018-Feb-15 13:30N 36°46' W 076°18'0 0.0
2018-Feb-15 13:00N 36°46' W 076°18'0 0.0
2018-Feb-15 12:30N 36°46' W 076°18'0 0.0
2018-Feb-15 12:00N 36°46' W 076°18'0 0.0
2018-Feb-15 11:30N 36°46' W 076°18'0 0.0
2018-Feb-15 11:00N 36°46' W 076°18'0 0.0
2018-Feb-15 10:30N 36°46' W 076°18'0 0.0
2018-Feb-15 10:00N 36°46' W 076°18'0 0.0
2018-Feb-15 09:30N 36°46' W 076°18'0 0.0
2018-Feb-15 08:57N 36°46' W 076°18'0 0.0
2018-Feb-15 08:30N 36°46' W 076°18'0 0.0
2018-Feb-15 08:00N 36°46' W 076°18'0 0.0
2018-Feb-15 07:30N 36°46' W 076°18'0 0.0
2018-Feb-15 07:00N 36°46' W 076°18'0 0.0
2018-Feb-15 06:30N 36°46' W 076°18'0 0.0
2018-Feb-15 06:00N 36°46' W 076°18'0 0.0
2018-Feb-15 05:30N 36°46' W 076°18'0 0.0
2018-Feb-15 05:00N 36°46' W 076°18'0 0.0
2018-Feb-15 04:30N 36°46' W 076°18'0 0.0
2018-Feb-15 04:00N 36°46' W 076°18'0 0.0
2018-Feb-15 03:30N 36°46' W 076°18'0 0.0
2018-Feb-15 03:00N 36°46' W 076°18'0 0.0
2018-Feb-15 02:30N 36°46' W 076°18'0 0.0
2018-Feb-15 01:57N 36°46' W 076°18'0 0.0
2018-Feb-15 01:30N 36°46' W 076°18'0 0.0
2018-Feb-15 01:00N 36°46' W 076°18'0 0.0
2018-Feb-15 00:30N 36°46' W 076°18'0 0.0
2018-Feb-15 00:00N 36°46' W 076°18'0 0.0
2018-Feb-14 23:30N 36°46' W 076°18'1 2.7
2018-Feb-14 23:00N 36°48' W 076°18'2 2.8
2018-Feb-14 22:28N 36°49' W 076°17'0 0.0
2018-Feb-14 21:58N 36°49' W 076°17'0 0.0
2018-Feb-14 21:28N 36°49' W 076°17'0 0.0
2018-Feb-14 20:58N 36°49' W 076°17'0 0.0
2018-Feb-14 20:28N 36°49' W 076°17'0 0.0
2018-Feb-14 20:00N 36°49' W 076°17'0 0.0
2018-Feb-14 19:30N 36°49' W 076°17'1 2.4
2018-Feb-14 19:00N 36°48' W 076°18'2 3.3
2018-Feb-14 18:30N 36°46' W 076°18'0 0.0
2018-Feb-14 18:00N 36°46' W 076°18'0 0.0
2018-Feb-14 17:30N 36°46' W 076°18'0 0.0
2018-Feb-14 17:00N 36°46' W 076°18'0 0.0
2018-Feb-14 16:30N 36°46' W 076°18'0 0.0
2018-Feb-14 16:00N 36°46' W 076°18'0 0.0
2018-Feb-14 15:30N 36°46' W 076°18'0 0.0
2018-Feb-14 15:00N 36°46' W 076°18'0 0.2
2018-Feb-14 14:30N 36°46' W 076°18'1 1.5
2018-Feb-14 14:00N 36°47' W 076°18'1 2.9
2018-Feb-14 13:30N 36°48' W 076°18'3 5.1
2018-Feb-14 13:00N 36°51' W 076°18'3 5.7
2018-Feb-14 12:30N 36°53' W 076°20'3 5.9
2018-Feb-14 11:58N 36°56' W 076°20'3 6.2
2018-Feb-14 11:26N 36°59' W 076°20'0 0.3
2018-Feb-14 11:00N 36°59' W 076°20'0 0.1
2018-Feb-14 10:30N 36°59' W 076°20'0 0.1
2018-Feb-14 10:00N 36°59' W 076°20'0 0.1
2018-Feb-14 09:30N 36°59' W 076°20'0 0.1
2018-Feb-14 09:00N 36°59' W 076°20'0 0.0
2018-Feb-14 08:29N 36°59' W 076°20'0 0.1
2018-Feb-14 07:59N 36°59' W 076°20'0 0.1
2018-Feb-14 07:29N 36°59' W 076°20'0 0.0
2018-Feb-14 06:59N 36°59' W 076°20'0 0.0
2018-Feb-14 06:28N 36°59' W 076°20'0 0.0
2018-Feb-14 05:58N 36°59' W 076°20'0 0.2
2018-Feb-14 05:27N 36°59' W 076°20'0 0.7
2018-Feb-14 04:57N 36°59' W 076°19'2 4.0
2018-Feb-14 04:26N 37°00' W 076°17'2 4.9
2018-Feb-14 03:58N 37°00' W 076°14'181 6.0
2018-Feb-12 21:55N 39°30' W 074°04'3 5.9
2018-Feb-12 21:28N 39°32' W 074°03'4 5.9
2018-Feb-12 20:51N 39°36' W 074°01'2 5.9
2018-Feb-12 20:30N 39°38' W 074°00'3 5.9
2018-Feb-12 19:59N 39°41' W 073°60'3 5.9
2018-Feb-12 19:30N 39°43' W 073°59'  
Track history (hours):
 
Tides and Currents Weather Stations Pressure Air Temp Water Temp Dewpoint Dewpoint Depression Visibility Wind Speed Wind Dir Waves Ship Positions

Doris Moran

Owner: MORAN TOWING CORPORATION, New Canaan, CT. More information available from US FCC via Universal Licensing System and Coast Guard Vessel Documentation Center.

Last reported at 2018-Feb-22 19:28 UTC. Time now 2018-Feb-24 02:18 UTC.
Position N 40°31' W 073°59'.

Date/timePositionNaut miles runAvg speedWind from/ knotsBaromVisibWave heightAir tempDewpointWater temp
2018-Feb-22 19:28N 40°31' W 073°59'3 6.6
2018-Feb-22 19:00N 40°33' W 074°02'3 6.8
2018-Feb-22 18:30N 40°37' W 074°03'2 4.3
2018-Feb-22 18:00N 40°39' W 074°04'4 7.7
2018-Feb-22 17:31N 40°39' W 074°09'2 4.4
2018-Feb-22 17:00N 40°41' W 074°08'2 4.3
2018-Feb-22 16:30N 40°43' W 074°07'0 0.0
2018-Feb-22 16:00N 40°43' W 074°07'0 0.0
2018-Feb-22 15:30N 40°43' W 074°07'0 0.1
2018-Feb-22 15:00N 40°43' W 074°07'4 8.4
2018-Feb-22 14:30N 40°39' W 074°09'0 0.9
2018-Feb-22 13:59N 40°39' W 074°10'0 0.0
2018-Feb-22 13:29N 40°39' W 074°10'0 0.0
2018-Feb-22 12:59N 40°39' W 074°10'0 0.0
2018-Feb-22 12:29N 40°39' W 074°10'0 0.0
2018-Feb-22 11:59N 40°39' W 074°10'0 0.0
2018-Feb-22 11:29N 40°39' W 074°10'0 0.0
2018-Feb-22 10:59N 40°39' W 074°10'0 0.0
2018-Feb-22 10:29N 40°39' W 074°10'0 0.0
2018-Feb-22 09:59N 40°39' W 074°10'0 0.0
2018-Feb-22 09:29N 40°39' W 074°10'0 0.0
2018-Feb-22 08:59N 40°39' W 074°10'0 0.0
2018-Feb-22 08:29N 40°39' W 074°10'0 0.0
2018-Feb-22 07:59N 40°39' W 074°10'0 0.0
2018-Feb-22 07:29N 40°39' W 074°10'0 0.0
2018-Feb-22 06:59N 40°39' W 074°10'0 0.0
2018-Feb-22 06:29N 40°39' W 074°10'0 0.0
2018-Feb-22 05:56N 40°39' W 074°10'0 0.0
2018-Feb-22 05:29N 40°39' W 074°10'0 0.0
2018-Feb-22 04:59N 40°39' W 074°10'0 0.0
2018-Feb-22 04:29N 40°39' W 074°10'0 0.0
2018-Feb-22 03:59N 40°39' W 074°10'0 0.0
2018-Feb-22 03:29N 40°39' W 074°10'0 0.0
2018-Feb-22 02:59N 40°39' W 074°10'0 0.0
2018-Feb-22 02:29N 40°39' W 074°10'0 0.0
2018-Feb-22 01:59N 40°39' W 074°10'0 0.0
2018-Feb-22 01:26N 40°39' W 074°10'0 0.0
2018-Feb-22 01:00N 40°39' W 074°10'0 0.3
2018-Feb-22 00:30N 40°39' W 074°10'2 4.5
2018-Feb-22 00:00N 40°40' W 074°08'2 4.8
2018-Feb-21 23:30N 40°43' W 074°07'0 0.0
2018-Feb-21 23:00N 40°43' W 074°07'1 1.0
2018-Feb-21 22:30N 40°42' W 074°07'2 3.6
2018-Feb-21 21:59N 40°41' W 074°08'2 4.1
2018-Feb-21 21:30N 40°39' W 074°08'3 6.3
2018-Feb-21 21:00N 40°39' W 074°04'1 2.5
2018-Feb-21 20:30N 40°39' W 074°03'0 0.2
2018-Feb-21 20:00N 40°39' W 074°03'0 0.1
2018-Feb-21 19:30N 40°39' W 074°03'0 0.1
2018-Feb-21 19:00N 40°40' W 074°03'0 0.0
2018-Feb-21 18:30N 40°40' W 074°03'0 0.0
2018-Feb-21 18:00N 40°40' W 074°03'0 0.0
2018-Feb-21 17:30N 40°40' W 074°03'0 0.1
2018-Feb-21 17:00N 40°40' W 074°03'2 3.8
2018-Feb-21 16:30N 40°39' W 074°05'3 5.7
2018-Feb-21 16:00N 40°39' W 074°09'3 6.6
2018-Feb-21 15:30N 40°42' W 074°07'1 1.1
2018-Feb-21 15:00N 40°43' W 074°07'0 0.0
2018-Feb-21 14:30N 40°43' W 074°07'1 1.4
2018-Feb-21 14:00N 40°42' W 074°07'3 6.8
2018-Feb-21 13:30N 40°39' W 074°09'1 1.9
2018-Feb-21 12:59N 40°38' W 074°08'0 0.0
2018-Feb-21 12:29N 40°38' W 074°08'0 0.0
2018-Feb-21 11:56N 40°38' W 074°08'0 0.0
2018-Feb-21 11:29N 40°38' W 074°08'0 0.0
2018-Feb-21 10:59N 40°38' W 074°08'0 0.0
2018-Feb-21 10:26N 40°38' W 074°08'0 0.0
2018-Feb-21 09:59N 40°38' W 074°08'0 0.0
2018-Feb-21 09:29N 40°38' W 074°08'0 0.0
2018-Feb-21 08:59N 40°38' W 074°08'0 0.0
2018-Feb-21 08:29N 40°38' W 074°08'0 0.0
2018-Feb-21 07:59N 40°38' W 074°08'0 0.0
2018-Feb-21 07:29N 40°38' W 074°08'0 0.0
2018-Feb-21 06:56N 40°38' W 074°08'0 0.0
2018-Feb-21 06:26N 40°38' W 074°08'0 0.0
2018-Feb-21 05:56N 40°38' W 074°08'0 0.0
2018-Feb-21 05:29N 40°38' W 074°08'0 0.0
2018-Feb-21 04:59N 40°38' W 074°08'0 0.0
2018-Feb-21 04:29N 40°38' W 074°08'0 0.0
2018-Feb-21 03:59N 40°38' W 074°08'0 0.0
2018-Feb-21 03:29N 40°38' W 074°08'0 0.0
2018-Feb-21 02:56N 40°38' W 074°08'0 0.0
2018-Feb-21 02:29N 40°38' W 074°08'0 0.0
2018-Feb-21 01:59N 40°38' W 074°08'0 0.0
2018-Feb-21 01:29N 40°38' W 074°08'1 1.7
2018-Feb-21 01:00N 40°39' W 074°09'4 7.5
2018-Feb-21 00:29N 40°42' W 074°07'0 0.1
2018-Feb-20 23:59N 40°42' W 074°07'1 1.3
2018-Feb-20 23:30N 40°43' W 074°07'0 0.0
2018-Feb-20 22:57N 40°43' W 074°07'0 1.0
2018-Feb-20 22:30N 40°42' W 074°07'2 4.4
2018-Feb-20 21:59N 40°40' W 074°08'1 3.2
2018-Feb-20 21:31N 40°39' W 074°08'3 5.6
2018-Feb-20 21:00N 40°39' W 074°05'1 2.7
2018-Feb-20 20:30N 40°39' W 074°03'0 0.0
2018-Feb-20 20:00N 40°39' W 074°03'0 0.0
2018-Feb-20 19:30N 40°39' W 074°03'0 0.0
2018-Feb-20 19:00N 40°39' W 074°03'0 0.1
2018-Feb-20 18:30N 40°39' W 074°03'2 3.8
2018-Feb-20 17:55N 40°37' W 074°03'0 0.4
2018-Feb-20 17:28N 40°37' W 074°03'1 1.4
2018-Feb-20 17:00N 40°38' W 074°03'2 4.9
2018-Feb-20 16:30N 40°39' W 074°06'2 3.5
2018-Feb-20 15:59N 40°40' W 074°09'3 5.2
2018-Feb-20 15:25N 40°42' W 074°07'0 0.9
2018-Feb-20 14:55N 40°43' W 074°07'0 0.0
2018-Feb-20 14:28N 40°43' W 074°07'0 0.1
2018-Feb-20 14:00N 40°43' W 074°07'3 5.8
2018-Feb-20 13:30N 40°40' W 074°08'2 2.8
2018-Feb-20 12:58N 40°38' W 074°08'0 0.0
2018-Feb-20 12:28N 40°38' W 074°08'0 0.0
2018-Feb-20 11:49N 40°38' W 074°08'0 0.1
2018-Feb-20 11:28N 40°38' W 074°08'0 0.0
2018-Feb-20 10:58N 40°38' W 074°08'0 0.1
2018-Feb-20 10:28N 40°38' W 074°08'0 0.0
2018-Feb-20 09:05N 40°38' W 074°08'0 0.0
2018-Feb-20 08:56N 40°38' W 074°08'0 0.0
2018-Feb-20 08:30N 40°38' W 074°08'0 0.0
2018-Feb-20 07:59N 40°38' W 074°08'0 0.0
2018-Feb-20 06:47N 40°38' W 074°08'0 0.0
2018-Feb-20 06:31N 40°38' W 074°08'0 0.0
2018-Feb-20 05:59N 40°38' W 074°08'0 0.0
2018-Feb-20 05:23N 40°38' W 074°08'0 0.0
2018-Feb-20 04:55N 40°38' W 074°08'0 0.0
2018-Feb-20 04:30N 40°38' W 074°08'0 0.0
2018-Feb-20 03:56N 40°38' W 074°08'0 0.0
2018-Feb-20 03:29N 40°38' W 074°08'0 0.0
2018-Feb-20 03:01N 40°38' W 074°08'0 0.0
2018-Feb-20 02:25N 40°38' W 074°08'0 0.0
2018-Feb-20 02:01N 40°38' W 074°08'0 0.0
2018-Feb-20 00:56N 40°38' W 074°08'1 2.6
2018-Feb-20 00:31N 40°39' W 074°09'1 1.5
2018-Feb-20 00:00N 40°40' W 074°09'0 0.9
2018-Feb-19 23:30N 40°40' W 074°09'1 2.8
2018-Feb-19 22:59N 40°39' W 074°07'3 5.8
2018-Feb-19 22:30N 40°39' W 074°03'2 4.1
2018-Feb-19 22:01N 40°37' W 074°03'4 6.9
2018-Feb-19 21:25N 40°39' W 074°07'1 1.7
2018-Feb-19 21:00N 40°39' W 074°07'1 2.0
2018-Feb-19 20:30N 40°38' W 074°08'0 0.0
2018-Feb-19 20:00N 40°38' W 074°08'0 0.0
2018-Feb-19 19:30N 40°38' W 074°08'0 0.0
2018-Feb-19 19:00N 40°38' W 074°08'0 0.0
2018-Feb-19 18:30N 40°38' W 074°08'0 0.0
2018-Feb-19 18:00N 40°38' W 074°08'0 0.0
2018-Feb-19 17:26N 40°38' W 074°08'0 0.0
2018-Feb-19 17:00N 40°38' W 074°08'0 0.0
2018-Feb-19 16:30N 40°38' W 074°08'0 0.0
2018-Feb-19 16:00N 40°38' W 074°08'0 0.0
2018-Feb-19 15:30N 40°38' W 074°08'0 0.0
2018-Feb-19 14:59N 40°38' W 074°08'2 4.1
2018-Feb-19 14:30N 40°40' W 074°08'2 4.3
2018-Feb-19 14:00N 40°42' W 074°07'0 0.0
2018-Feb-19 13:30N 40°42' W 074°07'0 0.6
2018-Feb-19 13:00N 40°43' W 074°07'1 1.5
2018-Feb-19 12:30N 40°42' W 074°07'3 6.1
2018-Feb-19 12:00N 40°39' W 074°09'1 2.7
2018-Feb-19 11:30N 40°39' W 074°07'2 4.7
2018-Feb-19 11:00N 40°39' W 074°04'2 4.8
2018-Feb-19 10:30N 40°37' W 074°03'2 3.4
2018-Feb-19 10:00N 40°35' W 074°02'2 4.1
2018-Feb-19 09:30N 40°33' W 074°02'2 4.1
2018-Feb-19 09:00N 40°31' W 073°60'3 4.4
2018-Feb-19 08:25N 40°30' W 073°57'2 4.1
2018-Feb-19 07:58N 40°29' W 073°55'2 4.9
2018-Feb-19 07:29N 40°26' W 073°56'39 4.6
2018-Feb-18 23:06N 39°48' W 073°58'1 5.0
2018-Feb-18 22:52N 39°47' W 073°58'2 5.0
2018-Feb-18 22:30N 39°45' W 073°59'3 5.0
2018-Feb-18 22:00N 39°43' W 073°59'2 4.9
2018-Feb-18 21:30N 39°40' W 073°60'3 4.9
2018-Feb-18 20:59N 39°38' W 074°01'3 4.9
2018-Feb-18 20:24N 39°35' W 074°02'2 4.9
2018-Feb-18 19:58N 39°33' W 074°03'179 4.7
2018-Feb-17 06:13N 36°56' W 075°53'1 5.0
2018-Feb-17 05:57N 36°56' W 075°54'2 5.2
2018-Feb-17 05:29N 36°56' W 075°57'3 5.9
2018-Feb-17 05:00N 36°56' W 076°01'3 5.1
2018-Feb-17 04:29N 36°57' W 076°04'13 4.2
2018-Feb-17 01:21N 36°58' W 076°20'0 0.6
2018-Feb-17 00:56N 36°59' W 076°20'1 3.3
2018-Feb-17 00:30N 36°57' W 076°20'3 5.4
2018-Feb-16 23:55N 36°54' W 076°20'2 5.3
2018-Feb-16 23:30N 36°52' W 076°19'2 4.5
2018-Feb-16 23:00N 36°50' W 076°18'2 4.6
2018-Feb-16 22:30N 36°48' W 076°18'1 2.3
2018-Feb-16 22:00N 36°47' W 076°18'0 0.8
2018-Feb-16 21:30N 36°46' W 076°18'0 0.0
2018-Feb-16 21:00N 36°46' W 076°18'0 0.0
2018-Feb-16 20:30N 36°46' W 076°18'0 0.0
2018-Feb-16 20:00N 36°46' W 076°18'0 0.0
2018-Feb-16 19:30N 36°46' W 076°18'0 0.0
2018-Feb-16 19:00N 36°46' W 076°18'0 0.0
2018-Feb-16 18:30N 36°46' W 076°18'0 0.0
2018-Feb-16 18:00N 36°46' W 076°18'0 0.0
2018-Feb-16 17:30N 36°46' W 076°18'0 0.0
2018-Feb-16 17:00N 36°46' W 076°18'0 0.0
2018-Feb-16 16:30N 36°46' W 076°18'0 0.0
2018-Feb-16 16:00N 36°46' W 076°18'0 0.0
2018-Feb-16 15:30N 36°46' W 076°18'0 0.0
2018-Feb-16 15:00N 36°46' W 076°18'0 0.0
2018-Feb-16 14:30N 36°46' W 076°18'0 0.0
2018-Feb-16 14:00N 36°46' W 076°18'0 0.0
2018-Feb-16 13:30N 36°46' W 076°18'0 0.0
2018-Feb-16 13:00N 36°46' W 076°18'0 0.0
2018-Feb-16 12:30N 36°46' W 076°18'0 0.0
2018-Feb-16 12:00N 36°46' W 076°18'0 0.0
2018-Feb-16 11:27N 36°46' W 076°18'0 0.0
2018-Feb-16 11:00N 36°46' W 076°18'0 0.0
2018-Feb-16 10:30N 36°46' W 076°18'0 0.0
2018-Feb-16 10:00N 36°46' W 076°18'0 0.0
2018-Feb-16 09:30N 36°46' W 076°18'0 0.0
2018-Feb-16 09:00N 36°46' W 076°18'0 0.0
2018-Feb-16 08:30N 36°46' W 076°18'0 0.0
2018-Feb-16 08:00N 36°46' W 076°18'0 0.0
2018-Feb-16 07:30N 36°46' W 076°18'0 0.0
2018-Feb-16 07:00N 36°46' W 076°18'0 0.0
2018-Feb-16 06:30N 36°46' W 076°18'0 0.0
2018-Feb-16 06:00N 36°46' W 076°18'0 0.0
2018-Feb-16 05:30N 36°46' W 076°18'0 0.0
2018-Feb-16 05:00N 36°46' W 076°18'0 0.0
2018-Feb-16 04:30N 36°46' W 076°18'0 0.0
2018-Feb-16 04:00N 36°46' W 076°18'0 0.0
2018-Feb-16 03:30N 36°46' W 076°18'0 0.0
2018-Feb-16 03:00N 36°46' W 076°18'0 0.0
2018-Feb-16 02:30N 36°46' W 076°18'0 0.0
2018-Feb-16 02:00N 36°46' W 076°18'0 0.0
2018-Feb-16 01:30N 36°46' W 076°18'0 0.0
2018-Feb-16 01:00N 36°46' W 076°18'0 0.0
2018-Feb-16 00:30N 36°46' W 076°18'0 0.0
2018-Feb-16 00:00N 36°46' W 076°18'0 0.0
2018-Feb-15 23:30N 36°46' W 076°18'0 0.0
2018-Feb-15 23:00N 36°46' W 076°18'0 0.0
2018-Feb-15 22:30N 36°46' W 076°18'0 0.0
2018-Feb-15 22:00N 36°46' W 076°18'0 0.0
2018-Feb-15 21:30N 36°46' W 076°18'0 0.0
2018-Feb-15 21:00N 36°46' W 076°18'0 0.0
2018-Feb-15 20:30N 36°46' W 076°18'0 0.0
2018-Feb-15 20:00N 36°46' W 076°18'0 0.0
2018-Feb-15 19:30N 36°46' W 076°18'0 0.0
2018-Feb-15 19:00N 36°46' W 076°18'0 0.0
2018-Feb-15 18:30N 36°46' W 076°18'0 0.0
2018-Feb-15 18:00N 36°46' W 076°18'0 0.0
2018-Feb-15 17:30N 36°46' W 076°18'0 0.0
2018-Feb-15 17:00N 36°46' W 076°18'0 0.0
2018-Feb-15 16:30N 36°46' W 076°18'0 0.0
2018-Feb-15 16:00N 36°46' W 076°18'0 0.0
2018-Feb-15 15:30N 36°46' W 076°18'0 0.0
2018-Feb-15 15:00N 36°46' W 076°18'0 0.0
2018-Feb-15 14:30N 36°46' W 076°18'0 0.0
2018-Feb-15 14:00N 36°46' W 076°18'0 0.0
2018-Feb-15 13:30N 36°46' W 076°18'0 0.0
2018-Feb-15 13:00N 36°46' W 076°18'0 0.0
2018-Feb-15 12:30N 36°46' W 076°18'0 0.0
2018-Feb-15 12:00N 36°46' W 076°18'0 0.0
2018-Feb-15 11:30N 36°46' W 076°18'0 0.0
2018-Feb-15 11:00N 36°46' W 076°18'0 0.0
2018-Feb-15 10:30N 36°46' W 076°18'0 0.0
2018-Feb-15 10:00N 36°46' W 076°18'0 0.0
2018-Feb-15 09:30N 36°46' W 076°18'0 0.0
2018-Feb-15 08:57N 36°46' W 076°18'0 0.0
2018-Feb-15 08:30N 36°46' W 076°18'0 0.0
2018-Feb-15 08:00N 36°46' W 076°18'0 0.0
2018-Feb-15 07:30N 36°46' W 076°18'0 0.0
2018-Feb-15 07:00N 36°46' W 076°18'0 0.0
2018-Feb-15 06:30N 36°46' W 076°18'0 0.0
2018-Feb-15 06:00N 36°46' W 076°18'0 0.0
2018-Feb-15 05:30N 36°46' W 076°18'0 0.0
2018-Feb-15 05:00N 36°46' W 076°18'0 0.0
2018-Feb-15 04:30N 36°46' W 076°18'0 0.0
2018-Feb-15 04:00N 36°46' W 076°18'0 0.0
2018-Feb-15 03:30N 36°46' W 076°18'0 0.0
2018-Feb-15 03:00N 36°46' W 076°18'0 0.0
2018-Feb-15 02:30N 36°46' W 076°18'0 0.0
2018-Feb-15 01:57N 36°46' W 076°18'0 0.0
2018-Feb-15 01:30N 36°46' W 076°18'0 0.0
2018-Feb-15 01:00N 36°46' W 076°18'0 0.0
2018-Feb-15 00:30N 36°46' W 076°18'0 0.0
2018-Feb-15 00:00N 36°46' W 076°18'0 0.0
2018-Feb-14 23:30N 36°46' W 076°18'1 2.7
2018-Feb-14 23:00N 36°48' W 076°18'2 2.8
2018-Feb-14 22:28N 36°49' W 076°17'0 0.0
2018-Feb-14 21:58N 36°49' W 076°17'0 0.0
2018-Feb-14 21:28N 36°49' W 076°17'0 0.0
2018-Feb-14 20:58N 36°49' W 076°17'0 0.0
2018-Feb-14 20:28N 36°49' W 076°17'0 0.0
2018-Feb-14 20:00N 36°49' W 076°17'0 0.0
2018-Feb-14 19:30N 36°49' W 076°17'1 2.4
2018-Feb-14 19:00N 36°48' W 076°18'2 3.3
2018-Feb-14 18:30N 36°46' W 076°18'0 0.0
2018-Feb-14 18:00N 36°46' W 076°18'0 0.0
2018-Feb-14 17:30N 36°46' W 076°18'0 0.0
2018-Feb-14 17:00N 36°46' W 076°18'0 0.0
2018-Feb-14 16:30N 36°46' W 076°18'0 0.0
2018-Feb-14 16:00N 36°46' W 076°18'0 0.0
2018-Feb-14 15:30N 36°46' W 076°18'0 0.0
2018-Feb-14 15:00N 36°46' W 076°18'0 0.2
2018-Feb-14 14:30N 36°46' W 076°18'1 1.5
2018-Feb-14 14:00N 36°47' W 076°18'1 2.9
2018-Feb-14 13:30N 36°48' W 076°18'3 5.1
2018-Feb-14 13:00N 36°51' W 076°18'3 5.7
2018-Feb-14 12:30N 36°53' W 076°20'3 5.9
2018-Feb-14 11:58N 36°56' W 076°20'3 6.2
2018-Feb-14 11:26N 36°59' W 076°20'0 0.3
2018-Feb-14 11:00N 36°59' W 076°20'0 0.1
2018-Feb-14 10:30N 36°59' W 076°20'0 0.1
2018-Feb-14 10:00N 36°59' W 076°20'0 0.1
2018-Feb-14 09:30N 36°59' W 076°20'0 0.1
2018-Feb-14 09:00N 36°59' W 076°20'0 0.0
2018-Feb-14 08:29N 36°59' W 076°20'0 0.1
2018-Feb-14 07:59N 36°59' W 076°20'0 0.1
2018-Feb-14 07:29N 36°59' W 076°20'0 0.0
2018-Feb-14 06:59N 36°59' W 076°20'0 0.0
2018-Feb-14 06:28N 36°59' W 076°20'0 0.0
2018-Feb-14 05:58N 36°59' W 076°20'0 0.2
2018-Feb-14 05:27N 36°59' W 076°20'0 0.7
2018-Feb-14 04:57N 36°59' W 076°19'2 4.0
2018-Feb-14 04:26N 37°00' W 076°17'2 4.9
2018-Feb-14 03:58N 37°00' W 076°14'181 6.0
2018-Feb-12 21:55N 39°30' W 074°04'3 5.9
2018-Feb-12 21:28N 39°32' W 074°03'4 5.9
2018-Feb-12 20:51N 39°36' W 074°01'2 5.9
2018-Feb-12 20:30N 39°38' W 074°00'3 5.9
2018-Feb-12 19:59N 39°41' W 073°60'3 5.9
2018-Feb-12 19:30N 39°43' W 073°59'  

Dump ship's entire track history